sensor_id;sensor_type;location;lat;lon;timestamp;temperature;humidity
20492;DHT22;10404;51.468;6.762;2023-04-05T00:01:48;7.10;46.30
20492;DHT22;10404;51.468;6.762;2023-04-05T00:04:15;7.10;46.40
20492;DHT22;10404;51.468;6.762;2023-04-05T00:06:45;7.00;46.50
20492;DHT22;10404;51.468;6.762;2023-04-05T00:09:11;7.00;46.60
20492;DHT22;10404;51.468;6.762;2023-04-05T00:11:37;7.00;46.70
20492;DHT22;10404;51.468;6.762;2023-04-05T00:14:03;7.00;46.70
20492;DHT22;10404;51.468;6.762;2023-04-05T00:16:28;6.90;46.70
20492;DHT22;10404;51.468;6.762;2023-04-05T00:18:57;6.80;46.90
20492;DHT22;10404;51.468;6.762;2023-04-05T00:21:24;6.80;47.00
20492;DHT22;10404;51.468;6.762;2023-04-05T00:23:55;6.80;47.10
20492;DHT22;10404;51.468;6.762;2023-04-05T00:26:24;6.70;47.10
20492;DHT22;10404;51.468;6.762;2023-04-05T00:28:50;6.70;47.10
20492;DHT22;10404;51.468;6.762;2023-04-05T00:31:16;6.70;47.30
20492;DHT22;10404;51.468;6.762;2023-04-05T00:33:42;6.60;47.40
20492;DHT22;10404;51.468;6.762;2023-04-05T00:36:16;6.60;47.40
20492;DHT22;10404;51.468;6.762;2023-04-05T00:38:44;6.60;47.50
20492;DHT22;10404;51.468;6.762;2023-04-05T00:41:11;6.50;47.50
20492;DHT22;10404;51.468;6.762;2023-04-05T00:43:37;6.50;47.60
20492;DHT22;10404;51.468;6.762;2023-04-05T00:46:04;6.40;47.70
20492;DHT22;10404;51.468;6.762;2023-04-05T00:48:30;6.40;47.70
20492;DHT22;10404;51.468;6.762;2023-04-05T00:50:56;6.40;47.80
20492;DHT22;10404;51.468;6.762;2023-04-05T00:53:22;6.30;47.80
20492;DHT22;10404;51.468;6.762;2023-04-05T00:55:48;6.30;47.80
20492;DHT22;10404;51.468;6.762;2023-04-05T00:58:16;6.30;48.00
20492;DHT22;10404;51.468;6.762;2023-04-05T01:01:10;6.20;48.00
20492;DHT22;10404;51.468;6.762;2023-04-05T01:03:40;6.20;48.20
20492;DHT22;10404;51.468;6.762;2023-04-05T01:09:13;6.10;48.20
20492;DHT22;10404;51.468;6.762;2023-04-05T01:11:42;6.10;48.30
20492;DHT22;10404;51.468;6.762;2023-04-05T01:14:09;6.00;48.20
20492;DHT22;10404;51.468;6.762;2023-04-05T01:16:34;6.00;48.30
20492;DHT22;10404;51.468;6.762;2023-04-05T01:19:00;5.90;48.40
20492;DHT22;10404;51.468;6.762;2023-04-05T01:27:19;5.80;48.50
20492;DHT22;10404;51.468;6.762;2023-04-05T01:30:02;5.80;48.50
20492;DHT22;10404;51.468;6.762;2023-04-05T01:35:28;5.70;48.60
20492;DHT22;10404;51.468;6.762;2023-04-05T01:37:59;5.60;48.70
20492;DHT22;10404;51.468;6.762;2023-04-05T01:40:25;5.60;48.80
20492;DHT22;10404;51.468;6.762;2023-04-05T01:42:51;5.60;48.90
20492;DHT22;10404;51.468;6.762;2023-04-05T01:45:17;5.50;48.90
20492;DHT22;10404;51.468;6.762;2023-04-05T01:47:42;5.50;49.00
20492;DHT22;10404;51.468;6.762;2023-04-05T01:50:08;5.50;49.00
20492;DHT22;10404;51.468;6.762;2023-04-05T01:52:34;5.50;49.00
20492;DHT22;10404;51.468;6.762;2023-04-05T01:54:59;5.40;49.10
20492;DHT22;10404;51.468;6.762;2023-04-05T01:57:25;5.30;49.10
20492;DHT22;10404;51.468;6.762;2023-04-05T01:59:50;5.30;49.20
20492;DHT22;10404;51.468;6.762;2023-04-05T02:02:19;5.30;49.20
20492;DHT22;10404;51.468;6.762;2023-04-05T02:04:44;5.30;49.20
20492;DHT22;10404;51.468;6.762;2023-04-05T02:07:10;5.20;49.30
20492;DHT22;10404;51.468;6.762;2023-04-05T02:09:35;5.20;49.40
20492;DHT22;10404;51.468;6.762;2023-04-05T02:12:01;5.10;49.50
20492;DHT22;10404;51.468;6.762;2023-04-05T02:14:28;5.10;49.50
20492;DHT22;10404;51.468;6.762;2023-04-05T02:16:53;5.10;49.50
20492;DHT22;10404;51.468;6.762;2023-04-05T02:19:21;5.00;49.60
20492;DHT22;10404;51.468;6.762;2023-04-05T02:21:51;5.00;49.60
20492;DHT22;10404;51.468;6.762;2023-04-05T02:24:18;5.00;49.70
20492;DHT22;10404;51.468;6.762;2023-04-05T02:26:44;5.00;49.70
20492;DHT22;10404;51.468;6.762;2023-04-05T02:29:09;4.90;49.70
20492;DHT22;10404;51.468;6.762;2023-04-05T02:31:35;4.90;49.80
20492;DHT22;10404;51.468;6.762;2023-04-05T02:34:00;4.90;49.90
20492;DHT22;10404;51.468;6.762;2023-04-05T02:36:26;4.80;49.90
20492;DHT22;10404;51.468;6.762;2023-04-05T02:38:54;4.70;50.00
20492;DHT22;10404;51.468;6.762;2023-04-05T02:41:20;4.70;50.20
20492;DHT22;10404;51.468;6.762;2023-04-05T02:43:48;4.70;50.20
20492;DHT22;10404;51.468;6.762;2023-04-05T02:46:14;4.70;50.20
20492;DHT22;10404;51.468;6.762;2023-04-05T02:48:40;4.60;50.20
20492;DHT22;10404;51.468;6.762;2023-04-05T02:51:05;4.60;50.30
20492;DHT22;10404;51.468;6.762;2023-04-05T02:53:31;4.50;50.30
20492;DHT22;10404;51.468;6.762;2023-04-05T02:55:56;4.50;50.40
20492;DHT22;10404;51.468;6.762;2023-04-05T02:58:24;4.50;50.40
20492;DHT22;10404;51.468;6.762;2023-04-05T03:00:50;4.50;50.50
20492;DHT22;10404;51.468;6.762;2023-04-05T03:03:18;4.50;50.50
20492;DHT22;10404;51.468;6.762;2023-04-05T03:05:44;4.40;50.50
20492;DHT22;10404;51.468;6.762;2023-04-05T03:08:11;4.40;50.70
20492;DHT22;10404;51.468;6.762;2023-04-05T03:10:50;4.30;50.70
20492;DHT22;10404;51.468;6.762;2023-04-05T03:13:16;4.30;50.70
20492;DHT22;10404;51.468;6.762;2023-04-05T03:15:42;4.30;50.80
20492;DHT22;10404;51.468;6.762;2023-04-05T03:18:08;4.20;50.80
20492;DHT22;10404;51.468;6.762;2023-04-05T03:20:35;4.20;50.90
20492;DHT22;10404;51.468;6.762;2023-04-05T03:23:08;4.20;50.80
20492;DHT22;10404;51.468;6.762;2023-04-05T03:25:35;4.10;50.90
20492;DHT22;10404;51.468;6.762;2023-04-05T03:28:02;4.10;51.00
20492;DHT22;10404;51.468;6.762;2023-04-05T03:30:32;4.10;51.00
20492;DHT22;10404;51.468;6.762;2023-04-05T03:32:57;4.00;51.00
20492;DHT22;10404;51.468;6.762;2023-04-05T03:35:28;4.00;51.00
20492;DHT22;10404;51.468;6.762;2023-04-05T03:37:57;4.00;51.20
20492;DHT22;10404;51.468;6.762;2023-04-05T03:40:23;3.90;51.20
20492;DHT22;10404;51.468;6.762;2023-04-05T03:42:49;3.90;51.20
20492;DHT22;10404;51.468;6.762;2023-04-05T03:45:15;3.90;51.40
20492;DHT22;10404;51.468;6.762;2023-04-05T03:47:41;3.80;51.40
20492;DHT22;10404;51.468;6.762;2023-04-05T03:50:07;3.80;51.40
20492;DHT22;10404;51.468;6.762;2023-04-05T03:52:33;3.70;51.40
20492;DHT22;10404;51.468;6.762;2023-04-05T03:54:58;3.70;51.50
20492;DHT22;10404;51.468;6.762;2023-04-05T03:57:24;3.70;51.50
20492;DHT22;10404;51.468;6.762;2023-04-05T03:59:52;3.70;51.40
20492;DHT22;10404;51.468;6.762;2023-04-05T04:02:18;3.60;51.50
20492;DHT22;10404;51.468;6.762;2023-04-05T04:04:43;3.60;51.50
20492;DHT22;10404;51.468;6.762;2023-04-05T04:07:09;3.60;51.70
20492;DHT22;10404;51.468;6.762;2023-04-05T04:09:34;3.50;51.50
20492;DHT22;10404;51.468;6.762;2023-04-05T04:12:00;3.50;51.70
20492;DHT22;10404;51.468;6.762;2023-04-05T04:14:26;3.50;51.70
20492;DHT22;10404;51.468;6.762;2023-04-05T04:16:52;3.50;51.80
20492;DHT22;10404;51.468;6.762;2023-04-05T04:19:17;3.50;51.90
20492;DHT22;10404;51.468;6.762;2023-04-05T04:21:43;3.40;51.80
20492;DHT22;10404;51.468;6.762;2023-04-05T04:24:19;3.30;51.80
20492;DHT22;10404;51.468;6.762;2023-04-05T04:26:46;3.30;52.00
20492;DHT22;10404;51.468;6.762;2023-04-05T04:29:12;3.30;51.90
20492;DHT22;10404;51.468;6.762;2023-04-05T04:31:38;3.30;51.90
20492;DHT22;10404;51.468;6.762;2023-04-05T04:34:13;3.30;52.00
20492;DHT22;10404;51.468;6.762;2023-04-05T04:36:43;3.20;52.10
20492;DHT22;10404;51.468;6.762;2023-04-05T04:39:10;3.10;52.10
20492;DHT22;10404;51.468;6.762;2023-04-05T04:41:44;3.10;52.30
20492;DHT22;10404;51.468;6.762;2023-04-05T04:44:11;3.10;52.30
20492;DHT22;10404;51.468;6.762;2023-04-05T04:46:42;3.10;52.30
20492;DHT22;10404;51.468;6.762;2023-04-05T04:49:23;3.10;52.30
20492;DHT22;10404;51.468;6.762;2023-04-05T04:51:56;3.00;52.30
20492;DHT22;10404;51.468;6.762;2023-04-05T04:54:34;3.00;52.40
20492;DHT22;10404;51.468;6.762;2023-04-05T04:57:04;3.00;52.50
20492;DHT22;10404;51.468;6.762;2023-04-05T04:59:31;2.90;52.50
20492;DHT22;10404;51.468;6.762;2023-04-05T05:01:57;2.90;52.40
20492;DHT22;10404;51.468;6.762;2023-04-05T05:04:22;2.90;52.50
20492;DHT22;10404;51.468;6.762;2023-04-05T05:06:52;2.80;52.50
20492;DHT22;10404;51.468;6.762;2023-04-05T05:09:18;2.80;52.30
20492;DHT22;10404;51.468;6.762;2023-04-05T05:11:43;2.80;52.30
20492;DHT22;10404;51.468;6.762;2023-04-05T05:14:09;2.80;52.40
20492;DHT22;10404;51.468;6.762;2023-04-05T05:16:35;2.70;52.50
20492;DHT22;10404;51.468;6.762;2023-04-05T05:19:00;2.70;56.10
20492;DHT22;10404;51.468;6.762;2023-04-05T05:21:39;2.60;56.90
20492;DHT22;10404;51.468;6.762;2023-04-05T05:24:05;2.50;57.20
20492;DHT22;10404;51.468;6.762;2023-04-05T05:26:32;2.50;56.60
20492;DHT22;10404;51.468;6.762;2023-04-05T05:29:01;2.50;56.10
20492;DHT22;10404;51.468;6.762;2023-04-05T05:31:27;2.40;55.70
20492;DHT22;10404;51.468;6.762;2023-04-05T05:33:53;2.40;55.20
20492;DHT22;10404;51.468;6.762;2023-04-05T05:36:19;2.40;55.30
20492;DHT22;10404;51.468;6.762;2023-04-05T05:38:44;2.40;55.00
20492;DHT22;10404;51.468;6.762;2023-04-05T05:41:10;2.40;54.60
20492;DHT22;10404;51.468;6.762;2023-04-05T05:43:36;2.40;54.20
20492;DHT22;10404;51.468;6.762;2023-04-05T05:46:02;2.40;54.20
20492;DHT22;10404;51.468;6.762;2023-04-05T05:48:27;2.30;54.00
20492;DHT22;10404;51.468;6.762;2023-04-05T05:50:53;2.30;54.60
20492;DHT22;10404;51.468;6.762;2023-04-05T05:53:18;2.30;54.70
20492;DHT22;10404;51.468;6.762;2023-04-05T05:55:44;2.30;54.20
20492;DHT22;10404;51.468;6.762;2023-04-05T05:58:11;2.30;54.00
20492;DHT22;10404;51.468;6.762;2023-04-05T06:00:36;2.30;54.10
20492;DHT22;10404;51.468;6.762;2023-04-05T06:03:03;2.20;54.10
20492;DHT22;10404;51.468;6.762;2023-04-05T06:05:30;2.20;54.20
20492;DHT22;10404;51.468;6.762;2023-04-05T06:07:56;2.20;54.50
20492;DHT22;10404;51.468;6.762;2023-04-05T06:10:22;2.20;55.10
20492;DHT22;10404;51.468;6.762;2023-04-05T06:12:49;2.20;55.20
20492;DHT22;10404;51.468;6.762;2023-04-05T06:15:15;2.30;55.50
20492;DHT22;10404;51.468;6.762;2023-04-05T06:17:41;2.30;55.30
20492;DHT22;10404;51.468;6.762;2023-04-05T06:20:08;2.40;55.40
20492;DHT22;10404;51.468;6.762;2023-04-05T06:22:34;2.50;55.20
20492;DHT22;10404;51.468;6.762;2023-04-05T06:25:00;2.50;55.00
20492;DHT22;10404;51.468;6.762;2023-04-05T06:27:26;2.70;55.00
20492;DHT22;10404;51.468;6.762;2023-04-05T06:29:52;2.70;55.00
20492;DHT22;10404;51.468;6.762;2023-04-05T06:32:19;2.80;55.10
20492;DHT22;10404;51.468;6.762;2023-04-05T06:34:45;2.90;55.00
20492;DHT22;10404;51.468;6.762;2023-04-05T06:37:13;3.00;55.10
20492;DHT22;10404;51.468;6.762;2023-04-05T06:39:38;3.00;55.20
20492;DHT22;10404;51.468;6.762;2023-04-05T06:42:04;3.10;55.20
20492;DHT22;10404;51.468;6.762;2023-04-05T06:44:30;3.20;55.00
20492;DHT22;10404;51.468;6.762;2023-04-05T06:46:55;3.30;55.00
20492;DHT22;10404;51.468;6.762;2023-04-05T06:49:21;3.30;55.00
20492;DHT22;10404;51.468;6.762;2023-04-05T06:51:48;3.40;55.30
20492;DHT22;10404;51.468;6.762;2023-04-05T06:54:14;3.50;55.40
20492;DHT22;10404;51.468;6.762;2023-04-05T06:56:40;3.50;55.40
20492;DHT22;10404;51.468;6.762;2023-04-05T06:59:05;3.60;55.40
20492;DHT22;10404;51.468;6.762;2023-04-05T07:01:31;3.70;55.30
20492;DHT22;10404;51.468;6.762;2023-04-05T07:03:57;3.90;55.10
20492;DHT22;10404;51.468;6.762;2023-04-05T07:06:22;3.90;55.00
20492;DHT22;10404;51.468;6.762;2023-04-05T07:08:48;4.00;54.90
20492;DHT22;10404;51.468;6.762;2023-04-05T07:11:14;4.10;54.80
20492;DHT22;10404;51.468;6.762;2023-04-05T07:13:40;4.20;54.80
20492;DHT22;10404;51.468;6.762;2023-04-05T07:16:06;4.30;54.70
20492;DHT22;10404;51.468;6.762;2023-04-05T07:18:31;4.30;54.60
20492;DHT22;10404;51.468;6.762;2023-04-05T07:20:58;4.50;54.50
20492;DHT22;10404;51.468;6.762;2023-04-05T07:23:28;4.50;54.50
20492;DHT22;10404;51.468;6.762;2023-04-05T07:25:54;4.70;54.50
20492;DHT22;10404;51.468;6.762;2023-04-05T07:28:23;4.70;54.30
20492;DHT22;10404;51.468;6.762;2023-04-05T07:30:49;4.90;54.30
20492;DHT22;10404;51.468;6.762;2023-04-05T07:33:14;5.00;54.30
20492;DHT22;10404;51.468;6.762;2023-04-05T07:35:40;5.00;54.20
20492;DHT22;10404;51.468;6.762;2023-04-05T07:38:07;5.20;54.00
20492;DHT22;10404;51.468;6.762;2023-04-05T07:40:33;5.30;54.00
20492;DHT22;10404;51.468;6.762;2023-04-05T07:42:59;5.40;53.70
20492;DHT22;10404;51.468;6.762;2023-04-05T07:45:25;5.50;53.60
20492;DHT22;10404;51.468;6.762;2023-04-05T07:47:51;5.60;53.10
20492;DHT22;10404;51.468;6.762;2023-04-05T07:50:17;5.80;53.10
20492;DHT22;10404;51.468;6.762;2023-04-05T07:52:42;5.90;53.10
20492;DHT22;10404;51.468;6.762;2023-04-05T07:55:09;6.00;52.90
20492;DHT22;10404;51.468;6.762;2023-04-05T07:57:34;6.00;52.90
20492;DHT22;10404;51.468;6.762;2023-04-05T08:00:00;6.10;52.90
20492;DHT22;10404;51.468;6.762;2023-04-05T08:02:25;6.20;52.80
20492;DHT22;10404;51.468;6.762;2023-04-05T08:04:51;6.30;52.60
20492;DHT22;10404;51.468;6.762;2023-04-05T08:07:17;6.40;52.50
20492;DHT22;10404;51.468;6.762;2023-04-05T08:09:42;6.60;52.40
20492;DHT22;10404;51.468;6.762;2023-04-05T08:12:08;6.60;52.40
20492;DHT22;10404;51.468;6.762;2023-04-05T08:14:35;6.70;52.20
20492;DHT22;10404;51.468;6.762;2023-04-05T08:17:01;6.90;52.00
20492;DHT22;10404;51.468;6.762;2023-04-05T08:19:26;7.00;51.90
20492;DHT22;10404;51.468;6.762;2023-04-05T08:21:52;7.00;51.70
20492;DHT22;10404;51.468;6.762;2023-04-05T08:24:18;7.20;51.30
20492;DHT22;10404;51.468;6.762;2023-04-05T08:26:43;7.30;51.20
20492;DHT22;10404;51.468;6.762;2023-04-05T08:29:10;7.50;51.10
20492;DHT22;10404;51.468;6.762;2023-04-05T08:31:35;7.50;51.10
20492;DHT22;10404;51.468;6.762;2023-04-05T08:34:01;7.60;51.00
20492;DHT22;10404;51.468;6.762;2023-04-05T08:36:27;7.80;51.00
20492;DHT22;10404;51.468;6.762;2023-04-05T08:38:52;7.80;50.90
20492;DHT22;10404;51.468;6.762;2023-04-05T08:41:22;8.00;50.50
20492;DHT22;10404;51.468;6.762;2023-04-05T08:44:01;8.00;50.50
20492;DHT22;10404;51.468;6.762;2023-04-05T08:46:32;8.10;50.50
20492;DHT22;10404;51.468;6.762;2023-04-05T08:48:59;8.30;50.40
20492;DHT22;10404;51.468;6.762;2023-04-05T08:51:25;8.30;50.10
20492;DHT22;10404;51.468;6.762;2023-04-05T08:53:51;8.50;50.00
20492;DHT22;10404;51.468;6.762;2023-04-05T08:56:25;8.60;49.80
20492;DHT22;10404;51.468;6.762;2023-04-05T08:58:59;8.60;49.70
20492;DHT22;10404;51.468;6.762;2023-04-05T09:01:28;8.80;49.70
20492;DHT22;10404;51.468;6.762;2023-04-05T09:03:56;8.90;49.80
20492;DHT22;10404;51.468;6.762;2023-04-05T09:06:23;8.90;49.60
20492;DHT22;10404;51.468;6.762;2023-04-05T09:08:51;9.00;49.20
20492;DHT22;10404;51.468;6.762;2023-04-05T09:11:17;9.20;48.50
20492;DHT22;10404;51.468;6.762;2023-04-05T09:13:44;9.30;48.40
20492;DHT22;10404;51.468;6.762;2023-04-05T09:16:10;9.40;48.10
20492;DHT22;10404;51.468;6.762;2023-04-05T09:18:36;9.40;48.00
20492;DHT22;10404;51.468;6.762;2023-04-05T09:21:06;9.50;47.80
20492;DHT22;10404;51.468;6.762;2023-04-05T09:23:36;9.60;47.80
20492;DHT22;10404;51.468;6.762;2023-04-05T09:26:19;9.70;48.10
20492;DHT22;10404;51.468;6.762;2023-04-05T09:28:46;9.80;47.80
20492;DHT22;10404;51.468;6.762;2023-04-05T09:31:31;9.90;47.70
20492;DHT22;10404;51.468;6.762;2023-04-05T09:34:01;10.00;47.70
20492;DHT22;10404;51.468;6.762;2023-04-05T09:36:27;10.10;47.90
20492;DHT22;10404;51.468;6.762;2023-04-05T09:39:06;10.20;48.00
20492;DHT22;10404;51.468;6.762;2023-04-05T09:41:33;10.20;48.00
20492;DHT22;10404;51.468;6.762;2023-04-05T09:43:59;10.30;48.00
20492;DHT22;10404;51.468;6.762;2023-04-05T09:46:30;10.40;47.90
20492;DHT22;10404;51.468;6.762;2023-04-05T09:48:56;10.50;48.00
20492;DHT22;10404;51.468;6.762;2023-04-05T09:51:22;10.60;47.90
20492;DHT22;10404;51.468;6.762;2023-04-05T09:54:17;10.70;47.50
20492;DHT22;10404;51.468;6.762;2023-04-05T09:56:53;10.70;47.10
20492;DHT22;10404;51.468;6.762;2023-04-05T09:59:21;10.90;47.20
20492;DHT22;10404;51.468;6.762;2023-04-05T10:01:50;10.90;47.20
20492;DHT22;10404;51.468;6.762;2023-04-05T10:04:18;11.00;47.20
20492;DHT22;10404;51.468;6.762;2023-04-05T10:06:44;11.10;47.20
20492;DHT22;10404;51.468;6.762;2023-04-05T10:09:11;11.30;47.00
20492;DHT22;10404;51.468;6.762;2023-04-05T10:11:41;11.30;46.80
20492;DHT22;10404;51.468;6.762;2023-04-05T10:14:08;11.40;46.60
20492;DHT22;10404;51.468;6.762;2023-04-05T10:16:57;11.50;46.30
20492;DHT22;10404;51.468;6.762;2023-04-05T10:22:31;11.70;45.70
20492;DHT22;10404;51.468;6.762;2023-04-05T10:25:04;11.80;46.00
20492;DHT22;10404;51.468;6.762;2023-04-05T10:27:38;11.90;46.00
20492;DHT22;10404;51.468;6.762;2023-04-05T10:30:08;12.00;46.00
20492;DHT22;10404;51.468;6.762;2023-04-05T10:35:20;12.20;45.30
20492;DHT22;10404;51.468;6.762;2023-04-05T10:38:11;12.30;45.00
20492;DHT22;10404;51.468;6.762;2023-04-05T10:40:37;12.50;44.70
20492;DHT22;10404;51.468;6.762;2023-04-05T10:43:07;12.50;44.60
20492;DHT22;10404;51.468;6.762;2023-04-05T10:45:35;12.60;44.60
20492;DHT22;10404;51.468;6.762;2023-04-05T10:48:15;12.70;44.70
20492;DHT22;10404;51.468;6.762;2023-04-05T10:50:43;12.80;44.60
20492;DHT22;10404;51.468;6.762;2023-04-05T10:53:11;12.90;44.70
20492;DHT22;10404;51.468;6.762;2023-04-05T10:55:38;13.00;44.80
20492;DHT22;10404;51.468;6.762;2023-04-05T10:58:04;13.00;44.50
20492;DHT22;10404;51.468;6.762;2023-04-05T11:00:30;13.10;44.70
20492;DHT22;10404;51.468;6.762;2023-04-05T11:02:56;13.10;44.60
20492;DHT22;10404;51.468;6.762;2023-04-05T11:05:38;13.30;44.70
20492;DHT22;10404;51.468;6.762;2023-04-05T11:08:07;13.30;44.40
20492;DHT22;10404;51.468;6.762;2023-04-05T11:10:37;13.40;43.90
20492;DHT22;10404;51.468;6.762;2023-04-05T11:13:05;13.50;43.90
20492;DHT22;10404;51.468;6.762;2023-04-05T11:15:32;13.50;43.80
20492;DHT22;10404;51.468;6.762;2023-04-05T11:20:48;13.60;44.50
20492;DHT22;10404;51.468;6.762;2023-04-05T11:23:18;13.70;44.60
20492;DHT22;10404;51.468;6.762;2023-04-05T11:25:51;13.80;44.80
20492;DHT22;10404;51.468;6.762;2023-04-05T11:28:29;13.90;44.70
20492;DHT22;10404;51.468;6.762;2023-04-05T11:30:56;13.90;44.70
20492;DHT22;10404;51.468;6.762;2023-04-05T11:36:07;14.10;44.50
20492;DHT22;10404;51.468;6.762;2023-04-05T11:38:34;14.20;44.30
20492;DHT22;10404;51.468;6.762;2023-04-05T11:41:13;14.20;44.10
20492;DHT22;10404;51.468;6.762;2023-04-05T11:43:43;14.30;44.10
20492;DHT22;10404;51.468;6.762;2023-04-05T11:46:09;14.40;44.00
20492;DHT22;10404;51.468;6.762;2023-04-05T11:48:35;14.50;43.90
20492;DHT22;10404;51.468;6.762;2023-04-05T11:51:07;14.60;44.10
20492;DHT22;10404;51.468;6.762;2023-04-05T11:53:37;14.60;44.10
20492;DHT22;10404;51.468;6.762;2023-04-05T11:56:09;14.70;43.90
20492;DHT22;10404;51.468;6.762;2023-04-05T11:58:37;14.70;43.80
20492;DHT22;10404;51.468;6.762;2023-04-05T12:01:07;14.80;43.60
20492;DHT22;10404;51.468;6.762;2023-04-05T12:03:36;14.90;43.50
20492;DHT22;10404;51.468;6.762;2023-04-05T12:06:03;15.00;43.30
20492;DHT22;10404;51.468;6.762;2023-04-05T12:08:43;15.10;43.60
20492;DHT22;10404;51.468;6.762;2023-04-05T12:11:16;15.20;43.70
20492;DHT22;10404;51.468;6.762;2023-04-05T12:13:47;15.30;43.50
20492;DHT22;10404;51.468;6.762;2023-04-05T12:16:13;15.30;43.40
20492;DHT22;10404;51.468;6.762;2023-04-05T12:18:39;15.40;43.60
20492;DHT22;10404;51.468;6.762;2023-04-05T12:21:07;15.40;43.50
20492;DHT22;10404;51.468;6.762;2023-04-05T12:23:33;15.50;43.40
20492;DHT22;10404;51.468;6.762;2023-04-05T12:26:01;15.60;43.30
20492;DHT22;10404;51.468;6.762;2023-04-05T12:28:54;15.60;43.20
20492;DHT22;10404;51.468;6.762;2023-04-05T12:31:41;15.70;43.00
20492;DHT22;10404;51.468;6.762;2023-04-05T12:34:08;15.80;43.30
20492;DHT22;10404;51.468;6.762;2023-04-05T12:36:34;15.80;43.20
20492;DHT22;10404;51.468;6.762;2023-04-05T12:39:05;16.00;43.00
20492;DHT22;10404;51.468;6.762;2023-04-05T12:41:34;16.00;43.10
20492;DHT22;10404;51.468;6.762;2023-04-05T12:44:16;16.10;42.90
20492;DHT22;10404;51.468;6.762;2023-04-05T12:46:45;16.10;42.40
20492;DHT22;10404;51.468;6.762;2023-04-05T12:49:16;16.10;41.90
20492;DHT22;10404;51.468;6.762;2023-04-05T12:51:46;16.20;41.10
20492;DHT22;10404;51.468;6.762;2023-04-05T12:54:22;16.20;41.20
20492;DHT22;10404;51.468;6.762;2023-04-05T12:56:57;16.30;41.10
20492;DHT22;10404;51.468;6.762;2023-04-05T12:59:25;16.30;40.40
20492;DHT22;10404;51.468;6.762;2023-04-05T13:01:51;16.30;39.90
20492;DHT22;10404;51.468;6.762;2023-04-05T13:04:20;16.40;39.40
20492;DHT22;10404;51.468;6.762;2023-04-05T13:06:47;16.40;39.10
20492;DHT22;10404;51.468;6.762;2023-04-05T13:09:13;16.40;38.90
20492;DHT22;10404;51.468;6.762;2023-04-05T13:11:38;16.50;38.80
20492;DHT22;10404;51.468;6.762;2023-04-05T13:21:09;16.70;38.70
20492;DHT22;10404;51.468;6.762;2023-04-05T13:23:37;16.80;38.80
20492;DHT22;10404;51.468;6.762;2023-04-05T13:26:03;16.90;38.60
20492;DHT22;10404;51.468;6.762;2023-04-05T13:28:29;17.00;38.60
20492;DHT22;10404;51.468;6.762;2023-04-05T13:30:55;17.00;38.40
20492;DHT22;10404;51.468;6.762;2023-04-05T13:33:20;17.20;38.50
20492;DHT22;10404;51.468;6.762;2023-04-05T13:35:46;17.20;38.40
20492;DHT22;10404;51.468;6.762;2023-04-05T13:38:12;17.40;38.40
20492;DHT22;10404;51.468;6.762;2023-04-05T13:40:38;17.50;38.30
20492;DHT22;10404;51.468;6.762;2023-04-05T13:43:04;17.50;38.30
20492;DHT22;10404;51.468;6.762;2023-04-05T13:45:30;17.60;38.20
20492;DHT22;10404;51.468;6.762;2023-04-05T13:47:59;17.70;38.20
20492;DHT22;10404;51.468;6.762;2023-04-05T13:50:24;17.80;38.40
20492;DHT22;10404;51.468;6.762;2023-04-05T13:52:50;18.00;38.30
20492;DHT22;10404;51.468;6.762;2023-04-05T13:55:17;18.00;38.30
20492;DHT22;10404;51.468;6.762;2023-04-05T13:57:42;18.10;38.40
20492;DHT22;10404;51.468;6.762;2023-04-05T14:00:08;18.20;38.50
20492;DHT22;10404;51.468;6.762;2023-04-05T14:02:35;18.30;38.30
20492;DHT22;10404;51.468;6.762;2023-04-05T14:05:00;18.40;38.50
20492;DHT22;10404;51.468;6.762;2023-04-05T14:07:26;18.50;38.40
20492;DHT22;10404;51.468;6.762;2023-04-05T14:09:52;18.60;38.50
20492;DHT22;10404;51.468;6.762;2023-04-05T14:12:17;18.70;38.70
20492;DHT22;10404;51.468;6.762;2023-04-05T14:14:43;18.70;38.70
20492;DHT22;10404;51.468;6.762;2023-04-05T14:17:09;18.80;38.60
20492;DHT22;10404;51.468;6.762;2023-04-05T14:19:37;18.90;38.70
20492;DHT22;10404;51.468;6.762;2023-04-05T14:22:03;19.00;38.60
20492;DHT22;10404;51.468;6.762;2023-04-05T14:24:28;19.10;38.50
20492;DHT22;10404;51.468;6.762;2023-04-05T14:26:54;19.20;38.50
20492;DHT22;10404;51.468;6.762;2023-04-05T14:29:21;19.30;38.60
20492;DHT22;10404;51.468;6.762;2023-04-05T14:31:47;19.30;38.50
20492;DHT22;10404;51.468;6.762;2023-04-05T14:34:13;19.40;38.60
20492;DHT22;10404;51.468;6.762;2023-04-05T14:36:39;19.50;38.70
20492;DHT22;10404;51.468;6.762;2023-04-05T14:39:04;19.50;38.90
20492;DHT22;10404;51.468;6.762;2023-04-05T14:41:30;19.60;38.60
20492;DHT22;10404;51.468;6.762;2023-04-05T14:43:56;19.70;38.60
20492;DHT22;10404;51.468;6.762;2023-04-05T14:46:22;19.70;38.70
20492;DHT22;10404;51.468;6.762;2023-04-05T14:48:48;19.70;38.40
20492;DHT22;10404;51.468;6.762;2023-04-05T14:51:13;19.70;38.20
20492;DHT22;10404;51.468;6.762;2023-04-05T14:53:39;19.80;38.20
20492;DHT22;10404;51.468;6.762;2023-04-05T14:56:06;19.80;38.10
20492;DHT22;10404;51.468;6.762;2023-04-05T14:58:34;19.90;37.90
20492;DHT22;10404;51.468;6.762;2023-04-05T15:01:00;19.90;37.70
20492;DHT22;10404;51.468;6.762;2023-04-05T15:03:26;20.00;38.10
20492;DHT22;10404;51.468;6.762;2023-04-05T15:05:52;20.00;37.40
20492;DHT22;10404;51.468;6.762;2023-04-05T15:08:17;20.00;37.70
20492;DHT22;10404;51.468;6.762;2023-04-05T15:10:43;20.00;38.00
20492;DHT22;10404;51.468;6.762;2023-04-05T15:13:10;20.10;37.40
20492;DHT22;10404;51.468;6.762;2023-04-05T15:15:36;20.10;37.60
20492;DHT22;10404;51.468;6.762;2023-04-05T15:18:02;20.10;37.10
20492;DHT22;10404;51.468;6.762;2023-04-05T15:20:28;20.10;36.90
20492;DHT22;10404;51.468;6.762;2023-04-05T15:22:54;20.10;37.50
20492;DHT22;10404;51.468;6.762;2023-04-05T15:25:20;20.10;36.80
20492;DHT22;10404;51.468;6.762;2023-04-05T15:27:45;20.10;36.70
20492;DHT22;10404;51.468;6.762;2023-04-05T15:30:11;20.10;36.30
20492;DHT22;10404;51.468;6.762;2023-04-05T15:32:37;20.10;36.50
20492;DHT22;10404;51.468;6.762;2023-04-05T15:35:03;20.20;36.10
20492;DHT22;10404;51.468;6.762;2023-04-05T15:37:29;20.20;36.40
20492;DHT22;10404;51.468;6.762;2023-04-05T15:39:55;20.30;36.30
20492;DHT22;10404;51.468;6.762;2023-04-05T15:42:21;20.20;36.40
20492;DHT22;10404;51.468;6.762;2023-04-05T15:44:47;20.30;36.50
20492;DHT22;10404;51.468;6.762;2023-04-05T15:47:13;20.00;29.20
20492;DHT22;10404;51.468;6.762;2023-04-05T15:49:39;19.50;28.30
20492;DHT22;10404;51.468;6.762;2023-04-05T15:52:04;18.90;28.00
20492;DHT22;10404;51.468;6.762;2023-04-05T15:54:30;18.30;28.00
20492;DHT22;10404;51.468;6.762;2023-04-05T15:56:56;17.90;28.20
20492;DHT22;10404;51.468;6.762;2023-04-05T15:59:22;17.50;28.20
20492;DHT22;10404;51.468;6.762;2023-04-05T16:01:48;17.10;28.40
20492;DHT22;10404;51.468;6.762;2023-04-05T16:04:14;16.80;29.00
20492;DHT22;10404;51.468;6.762;2023-04-05T16:06:40;16.70;29.30
20492;DHT22;10404;51.468;6.762;2023-04-05T16:09:06;16.50;28.90
20492;DHT22;10404;51.468;6.762;2023-04-05T16:11:31;16.40;29.60
20492;DHT22;10404;51.468;6.762;2023-04-05T16:13:57;16.40;30.80